Orlando, Florida
Traffic Map
Current Weather Conditions
Orlando, Florida
Clear
Clear
24°
Feels Like: 24°
Wind Chill: 24° Ceiling: Unl
Heat Index: 24° Visibility: 10mi
Dew Point: 23° Wind: 0mph
Humidity: 96% Direction: ° ()
Pressure: 30.05in Gusts: 0mph
Raw Report DataKORL 230953Z AUTO 00000KT 10SM CLR 24/23 A3005 RMK AO2 SLP180 T02390233
Traffic Incident Summary
Active as of:
Severity:
Category:
InformationThere was an issue retrieving the traffic information for this location. Please try a different location or try again shortly.
Advertisements
Track Severe Weather on mobile